createdAt,value
2023-03-29T00:01:57.693Z,3.99
2023-03-29T00:06:03.481Z,3.86
2023-03-29T00:10:07.698Z,3.73
2023-03-29T00:14:12.141Z,3.60
2023-03-29T00:18:15.893Z,3.46
2023-03-29T00:22:18.881Z,3.35
2023-03-29T00:26:22.414Z,3.29
2023-03-29T00:30:27.338Z,3.23
2023-03-29T00:34:31.860Z,3.21
2023-03-29T00:38:35.289Z,3.17
2023-03-29T00:42:39.382Z,3.15
2023-03-29T00:46:43.797Z,3.13
2023-03-29T00:50:52.341Z,3.12
2023-03-29T00:54:57.818Z,3.09
2023-03-29T00:59:05.502Z,3.08
2023-03-29T01:03:15.333Z,3.06
2023-03-29T01:07:24.522Z,3.04
2023-03-29T01:11:30.463Z,3.03
2023-03-29T01:15:34.798Z,3.02
2023-03-29T01:19:45.524Z,3.05
2023-03-29T01:24:19.512Z,3.07
2023-03-29T01:28:29.042Z,3.11
2023-03-29T01:32:36.697Z,3.15
2023-03-29T01:36:42.717Z,3.20
2023-03-29T01:40:46.439Z,3.23
2023-03-29T01:44:58.024Z,3.26
2023-03-29T01:49:06.026Z,3.29
2023-03-29T01:53:13.649Z,3.31
2023-03-29T01:57:18.334Z,3.33
2023-03-29T02:01:27.649Z,3.35
2023-03-29T02:05:33.174Z,3.34
2023-03-29T02:09:40.134Z,3.34
2023-03-29T02:13:43.314Z,3.34
2023-03-29T02:17:49.757Z,3.37
2023-03-29T02:22:02.059Z,3.37
2023-03-29T02:26:07.065Z,3.39
2023-03-29T02:30:12.405Z,3.42
2023-03-29T02:34:23.804Z,3.45
2023-03-29T02:38:28.692Z,3.50
2023-03-29T02:42:33.480Z,3.53
2023-03-29T02:46:37.989Z,3.58
2023-03-29T02:50:46.870Z,3.64
2023-03-29T02:54:51.822Z,3.67
2023-03-29T02:58:54.979Z,3.72
2023-03-29T03:03:00.662Z,3.77
2023-03-29T03:07:06.788Z,3.81
2023-03-29T03:11:10.403Z,3.88
2023-03-29T03:15:13.808Z,3.91
2023-03-29T03:19:17.115Z,3.95
2023-03-29T03:23:21.505Z,3.98
2023-03-29T03:27:27.790Z,3.99
2023-03-29T03:31:30.957Z,4.01
2023-03-29T03:35:35.115Z,4.03
2023-03-29T03:39:39.868Z,4.06
2023-03-29T03:43:46.064Z,4.06
2023-03-29T03:47:49.577Z,4.08
2023-03-29T03:51:53.167Z,4.09
2023-03-29T03:55:58.363Z,4.10
2023-03-29T04:00:01.697Z,4.11
2023-03-29T04:04:05.089Z,4.13
2023-03-29T04:08:08.360Z,4.10
2023-03-29T04:12:13.198Z,4.12
2023-03-29T04:16:16.220Z,4.10
2023-03-29T04:20:19.997Z,4.15
2023-03-29T04:24:24.633Z,4.20
2023-03-29T04:28:29.596Z,4.24
2023-03-29T04:32:32.582Z,4.29
2023-03-29T04:36:36.639Z,4.35
2023-03-29T04:40:39.791Z,4.40
2023-03-29T04:44:44.381Z,4.47
2023-03-29T04:48:47.397Z,4.54
2023-03-29T04:52:51.060Z,4.58
2023-03-29T04:56:54.583Z,4.63
2023-03-29T05:01:00.028Z,4.68
2023-03-29T05:05:03.091Z,4.70
2023-03-29T05:09:09.351Z,4.73
2023-03-29T05:13:12.811Z,4.75
2023-03-29T05:17:17.549Z,4.79
2023-03-29T05:21:20.853Z,4.82
2023-03-29T05:25:26.107Z,4.82
2023-03-29T05:29:29.067Z,4.86
2023-03-29T05:33:34.006Z,4.86
2023-03-29T05:37:37.085Z,4.82
2023-03-29T05:41:40.783Z,4.77
2023-03-29T05:45:43.838Z,4.75
2023-03-29T05:49:48.796Z,4.70
2023-03-29T05:53:52.319Z,4.66
2023-03-29T05:57:56.024Z,4.62
2023-03-29T06:02:00.480Z,4.62
2023-03-29T06:06:06.155Z,4.63
2023-03-29T06:10:10.715Z,4.64
2023-03-29T06:15:10.515Z,4.67
2023-03-29T06:19:13.667Z,4.68
2023-03-29T06:23:18.359Z,4.71
2023-03-29T06:27:21.260Z,4.78
2023-03-29T06:31:24.968Z,4.84
2023-03-29T06:35:28.581Z,4.90
2023-03-29T06:39:33.543Z,4.96
2023-03-29T06:43:36.728Z,4.99
2023-03-29T06:47:40.391Z,5.03
2023-03-29T06:51:43.343Z,5.02
2023-03-29T06:55:56.102Z,5.00
2023-03-29T06:59:58.857Z,5.00
2023-03-29T07:04:05.088Z,4.95
2023-03-29T07:08:14.195Z,4.92
2023-03-29T07:12:19.552Z,4.93
2023-03-29T07:16:23.328Z,4.91
2023-03-29T07:20:27.858Z,4.91
2023-03-29T07:24:30.755Z,4.96
2023-03-29T07:28:37.629Z,5.01
2023-03-29T07:32:44.460Z,5.07
2023-03-29T07:36:48.139Z,5.16
2023-03-29T07:40:51.078Z,5.25
2023-03-29T07:44:56.114Z,5.34
2023-03-29T07:48:59.152Z,5.45
2023-03-29T07:53:03.765Z,5.56
2023-03-29T07:57:07.009Z,5.66
2023-03-29T08:01:18.853Z,5.75
2023-03-29T08:05:37.944Z,5.82
2023-03-29T08:09:45.293Z,5.91
2023-03-29T08:13:48.210Z,6.00
2023-03-29T08:17:53.058Z,6.10
2023-03-29T08:21:56.013Z,6.20
2023-03-29T08:26:00.118Z,6.34
2023-03-29T08:30:03.264Z,6.48
2023-03-29T08:34:08.080Z,6.60
2023-03-29T08:38:12.652Z,6.71
2023-03-29T08:42:35.772Z,6.82
2023-03-29T08:46:45.327Z,6.90
2023-03-29T08:50:55.730Z,6.97
2023-03-29T08:55:01.701Z,7.05
2023-03-29T08:59:08.360Z,7.21
2023-03-29T09:03:18.420Z,7.40
2023-03-29T09:07:25.956Z,7.62
2023-03-29T09:11:44.527Z,7.81
2023-03-29T09:15:56.809Z,8.00
2023-03-29T09:20:09.634Z,8.20
2023-03-29T09:24:22.995Z,8.47
2023-03-29T09:28:31.385Z,8.76
2023-03-29T09:32:41.300Z,8.97
2023-03-29T09:36:52.534Z,9.12
2023-03-29T09:41:04.745Z,9.19
2023-03-29T09:45:09.721Z,9.15
2023-03-29T09:49:18.229Z,9.13
2023-03-29T09:53:22.962Z,9.12
2023-03-29T09:57:31.175Z,9.17
2023-03-29T10:01:41.864Z,9.26
2023-03-29T10:05:48.317Z,9.37
2023-03-29T10:09:55.226Z,9.48
2023-03-29T10:14:04.550Z,9.61
2023-03-29T10:18:13.717Z,9.74
2023-03-29T10:22:20.570Z,9.86
2023-03-29T10:26:29.682Z,9.98
2023-03-29T10:30:38.196Z,10.12
2023-03-29T10:34:41.603Z,10.27
2023-03-29T10:38:46.303Z,10.43
2023-03-29T10:42:50.861Z,10.58
2023-03-29T10:46:56.089Z,10.74
2023-03-29T10:51:02.062Z,10.89
2023-03-29T10:55:07.240Z,11.05
2023-03-29T10:59:31.249Z,11.25
2023-03-29T11:04:04.471Z,11.53
2023-03-29T11:08:20.085Z,11.82
2023-03-29T11:12:30.669Z,12.06
2023-03-29T11:16:41.348Z,12.22
2023-03-29T11:20:57.567Z,12.34
2023-03-29T11:25:19.294Z,12.37
2023-03-29T11:29:30.131Z,12.38
2023-03-29T11:33:46.764Z,12.40
2023-03-29T11:37:58.590Z,12.43
2023-03-29T11:42:09.828Z,12.38
2023-03-29T11:46:18.049Z,12.33
2023-03-29T11:50:25.252Z,12.35
2023-03-29T11:54:36.661Z,12.42
2023-03-29T11:58:44.714Z,12.47
2023-03-29T12:02:52.177Z,12.50
2023-03-29T12:07:06.927Z,12.48
2023-03-29T12:11:20.031Z,12.41
2023-03-29T12:15:25.714Z,12.31
2023-03-29T12:19:32.898Z,12.21
2023-03-29T12:23:36.021Z,12.15
2023-03-29T12:27:49.332Z,12.14
2023-03-29T12:32:01.959Z,12.17
2023-03-29T12:36:22.034Z,12.25
2023-03-29T12:40:29.164Z,12.34
2023-03-29T12:44:34.915Z,12.48
2023-03-29T12:48:40.074Z,12.62
2023-03-29T12:52:44.411Z,12.72
2023-03-29T12:56:58.902Z,12.84
2023-03-29T13:01:09.427Z,13.05
2023-03-29T13:05:31.980Z,13.26
2023-03-29T13:09:48.204Z,13.37
2023-03-29T13:13:52.969Z,13.48
2023-03-29T13:18:05.565Z,13.54
2023-03-29T13:22:21.845Z,13.61
2023-03-29T13:26:44.239Z,13.66
2023-03-29T13:30:59.567Z,13.68
2023-03-29T13:35:15.337Z,13.74
2023-03-29T13:39:23.789Z,13.90
2023-03-29T13:43:34.283Z,14.10
2023-03-29T13:47:55.009Z,14.23
2023-03-29T13:52:17.320Z,14.30
2023-03-29T13:56:27.019Z,14.35
2023-03-29T14:00:37.353Z,14.41
2023-03-29T14:04:46.336Z,14.45
2023-03-29T14:08:51.082Z,14.45
2023-03-29T14:12:56.946Z,14.40
2023-03-29T14:17:02.357Z,14.33
2023-03-29T14:21:06.927Z,14.26
2023-03-29T14:25:17.475Z,14.22
2023-03-29T14:29:21.854Z,14.15
2023-03-29T14:33:27.991Z,14.13
2023-03-29T14:37:31.705Z,14.09
2023-03-29T14:41:39.444Z,14.11
2023-03-29T14:45:42.980Z,14.11
2023-03-29T14:49:47.443Z,14.16
2023-03-29T14:53:51.220Z,14.16
2023-03-29T14:57:58.057Z,14.15
2023-03-29T15:02:01.396Z,14.12
2023-03-29T15:06:06.817Z,14.09
2023-03-29T15:10:18.951Z,14.07
2023-03-29T15:14:27.009Z,14.07
2023-03-29T15:18:35.132Z,14.07
2023-03-29T15:22:38.940Z,14.03
2023-03-29T15:26:43.362Z,13.97
2023-03-29T15:30:57.395Z,13.89
2023-03-29T15:35:10.884Z,13.78
2023-03-29T15:39:15.461Z,13.69
2023-03-29T15:43:20.329Z,13.63
2023-03-29T15:47:25.560Z,13.61
2023-03-29T15:51:29.203Z,13.60
2023-03-29T15:55:33.526Z,13.63
2023-03-29T15:59:37.338Z,13.67
2023-03-29T16:03:41.998Z,13.73
2023-03-29T16:07:45.642Z,13.73
2023-03-29T16:11:49.599Z,13.69
2023-03-29T16:15:52.680Z,13.64
2023-03-29T16:19:57.293Z,13.56
2023-03-29T16:24:00.757Z,13.45
2023-03-29T16:28:04.967Z,13.32
2023-03-29T16:32:08.357Z,13.16
2023-03-29T16:36:13.455Z,13.01
2023-03-29T16:40:17.041Z,12.84
2023-03-29T16:44:23.782Z,12.69
2023-03-29T16:48:27.261Z,12.55
2023-03-29T16:52:32.646Z,12.41
2023-03-29T16:56:37.158Z,12.22
2023-03-29T17:00:41.026Z,12.12
2023-03-29T17:04:44.561Z,11.98
2023-03-29T17:08:50.542Z,11.83
2023-03-29T17:12:53.744Z,11.73
2023-03-29T17:16:56.797Z,11.62
2023-03-29T17:21:01.837Z,11.49
2023-03-29T17:25:07.909Z,11.40
2023-03-29T17:29:10.907Z,11.29
2023-03-29T17:33:15.289Z,11.21
2023-03-29T17:37:18.697Z,11.12
2023-03-29T17:41:24.046Z,11.05
2023-03-29T17:45:27.379Z,10.94
2023-03-29T17:49:30.365Z,10.88
2023-03-29T17:53:33.690Z,10.82
2023-03-29T17:57:38.317Z,10.76
2023-03-29T18:01:42.037Z,10.70
2023-03-29T18:05:45.273Z,10.63
2023-03-29T18:09:48.462Z,10.50
2023-03-29T18:13:56.126Z,10.49
2023-03-29T18:17:59.343Z,10.42
2023-03-29T18:22:02.491Z,10.34
2023-03-29T18:26:08.703Z,10.28
2023-03-29T18:30:16.739Z,10.21
2023-03-29T18:34:22.763Z,10.05
2023-03-29T18:38:25.977Z,10.11
2023-03-29T18:42:29.387Z,10.09
2023-03-29T18:46:34.547Z,10.09
2023-03-29T18:50:40.671Z,10.08
2023-03-29T18:54:44.287Z,10.07
2023-03-29T18:58:48.213Z,10.08
2023-03-29T19:02:52.869Z,10.09
2023-03-29T19:06:56.952Z,10.08
2023-03-29T19:11:03.527Z,10.06
2023-03-29T19:15:07.906Z,10.05
2023-03-29T19:19:13.339Z,10.01
2023-03-29T19:23:16.385Z,9.91
2023-03-29T19:27:20.703Z,9.87
2023-03-29T19:31:23.999Z,9.79
2023-03-29T19:35:28.956Z,9.71
2023-03-29T19:39:32.232Z,9.58
2023-03-29T19:43:36.100Z,9.48
2023-03-29T19:47:44.150Z,9.37
2023-03-29T19:51:48.708Z,9.29
2023-03-29T19:55:52.464Z,9.21
2023-03-29T19:59:55.764Z,9.16
2023-03-29T20:03:59.864Z,9.13
2023-03-29T20:08:04.750Z,9.10
2023-03-29T20:12:07.753Z,9.08
2023-03-29T20:16:13.926Z,9.05
2023-03-29T20:20:17.210Z,8.98
2023-03-29T20:24:21.885Z,8.97
2023-03-29T20:28:27.497Z,8.94
2023-03-29T20:32:31.183Z,8.90
2023-03-29T20:36:34.582Z,8.88
2023-03-29T20:40:41.703Z,8.90
2023-03-29T20:44:50.585Z,8.87
2023-03-29T20:48:54.457Z,8.95
2023-03-29T20:53:03.768Z,9.01
2023-03-29T20:57:09.062Z,9.06
2023-03-29T21:01:14.789Z,9.07
2023-03-29T21:05:18.544Z,9.07
2023-03-29T21:09:23.680Z,9.04
2023-03-29T21:13:28.436Z,9.01
2023-03-29T21:17:31.432Z,8.98
2023-03-29T21:21:35.539Z,8.97
2023-03-29T21:25:38.539Z,8.97
2023-03-29T21:30:13.795Z,9.00
2023-03-29T21:34:16.738Z,9.02
2023-03-29T21:38:20.250Z,9.05
2023-03-29T21:42:23.551Z,9.09
2023-03-29T21:46:28.730Z,9.13
2023-03-29T21:50:33.785Z,9.16
2023-03-29T21:54:37.293Z,9.18
2023-03-29T21:58:40.745Z,9.20
2023-03-29T22:02:47.581Z,9.30
2023-03-29T22:06:50.693Z,9.33
2023-03-29T22:10:57.072Z,9.36
2023-03-29T22:15:00.097Z,9.40
2023-03-29T22:19:05.827Z,9.44
2023-03-29T22:23:08.777Z,9.47
2023-03-29T22:27:12.820Z,9.49
2023-03-29T22:31:17.776Z,9.50
2023-03-29T22:35:22.417Z,9.52
2023-03-29T22:39:25.378Z,9.53
2023-03-29T22:43:29.081Z,9.54
2023-03-29T22:47:32.081Z,9.54
2023-03-29T22:51:37.480Z,9.53
2023-03-29T22:55:40.638Z,9.50
2023-03-29T22:59:43.990Z,9.47
2023-03-29T23:03:46.986Z,9.43
2023-03-29T23:07:52.117Z,9.38
2023-03-29T23:11:54.993Z,9.32
2023-03-29T23:16:00.405Z,9.27
2023-03-29T23:20:05.978Z,9.22
2023-03-29T23:24:10.794Z,9.18
2023-03-29T23:28:13.887Z,9.14
2023-03-29T23:32:17.859Z,9.12
2023-03-29T23:36:23.082Z,9.11
2023-03-29T23:40:28.184Z,9.11
2023-03-29T23:44:31.132Z,9.10
2023-03-29T23:48:34.843Z,9.12
2023-03-29T23:52:38.196Z,9.13
2023-03-29T23:56:43.286Z,9.16
